sensor_id;sensor_type;location;lat;lon;timestamp;temperature;humidity
24518;DHT22;12678;51.336;12.406;2023-05-10T00:01:07;11.60;99.90
24518;DHT22;12678;51.336;12.406;2023-05-10T00:03:33;11.60;99.90
24518;DHT22;12678;51.336;12.406;2023-05-10T00:05:59;11.50;99.90
24518;DHT22;12678;51.336;12.406;2023-05-10T00:08:24;11.50;99.90
24518;DHT22;12678;51.336;12.406;2023-05-10T00:10:50;11.50;99.90
24518;DHT22;12678;51.336;12.406;2023-05-10T00:13:16;11.40;99.90
24518;DHT22;12678;51.336;12.406;2023-05-10T00:15:42;11.40;99.90
24518;DHT22;12678;51.336;12.406;2023-05-10T00:18:08;11.30;99.90
24518;DHT22;12678;51.336;12.406;2023-05-10T00:20:33;11.30;99.90
24518;DHT22;12678;51.336;12.406;2023-05-10T00:22:59;11.30;99.90
24518;DHT22;12678;51.336;12.406;2023-05-10T00:25:25;11.30;99.90
24518;DHT22;12678;51.336;12.406;2023-05-10T00:27:50;11.20;99.90
24518;DHT22;12678;51.336;12.406;2023-05-10T00:30:16;11.10;99.90
24518;DHT22;12678;51.336;12.406;2023-05-10T00:32:42;11.10;99.90
24518;DHT22;12678;51.336;12.406;2023-05-10T00:35:08;11.10;99.90
24518;DHT22;12678;51.336;12.406;2023-05-10T00:37:34;11.20;99.90
24518;DHT22;12678;51.336;12.406;2023-05-10T00:40:00;11.20;99.90
24518;DHT22;12678;51.336;12.406;2023-05-10T00:42:26;11.10;99.90
24518;DHT22;12678;51.336;12.406;2023-05-10T00:44:51;11.10;99.90
24518;DHT22;12678;51.336;12.406;2023-05-10T00:47:17;11.10;99.90
24518;DHT22;12678;51.336;12.406;2023-05-10T00:49:43;11.20;99.90
24518;DHT22;12678;51.336;12.406;2023-05-10T00:52:10;11.10;99.90
24518;DHT22;12678;51.336;12.406;2023-05-10T00:54:36;11.20;99.90
24518;DHT22;12678;51.336;12.406;2023-05-10T00:57:02;11.10;99.90
24518;DHT22;12678;51.336;12.406;2023-05-10T00:59:29;11.10;99.90
24518;DHT22;12678;51.336;12.406;2023-05-10T01:01:55;11.10;99.90
24518;DHT22;12678;51.336;12.406;2023-05-10T01:04:20;11.10;99.90
24518;DHT22;12678;51.336;12.406;2023-05-10T01:06:53;11.10;99.90
24518;DHT22;12678;51.336;12.406;2023-05-10T01:09:20;11.10;99.90
24518;DHT22;12678;51.336;12.406;2023-05-10T01:11:46;11.10;99.90
24518;DHT22;12678;51.336;12.406;2023-05-10T01:14:13;11.20;99.90
24518;DHT22;12678;51.336;12.406;2023-05-10T01:16:40;11.10;99.90
24518;DHT22;12678;51.336;12.406;2023-05-10T01:19:17;11.10;99.90
24518;DHT22;12678;51.336;12.406;2023-05-10T01:21:49;11.10;99.90
24518;DHT22;12678;51.336;12.406;2023-05-10T01:27:17;11.00;99.90
24518;DHT22;12678;51.336;12.406;2023-05-10T01:35:55;11.10;99.90
24518;DHT22;12678;51.336;12.406;2023-05-10T01:38:42;11.00;99.90
24518;DHT22;12678;51.336;12.406;2023-05-10T01:44:11;11.00;99.90
24518;DHT22;12678;51.336;12.406;2023-05-10T01:46:40;11.00;99.90
24518;DHT22;12678;51.336;12.406;2023-05-10T01:49:14;10.90;99.90
24518;DHT22;12678;51.336;12.406;2023-05-10T01:51:48;10.80;99.90
24518;DHT22;12678;51.336;12.406;2023-05-10T01:54:18;10.80;99.90
24518;DHT22;12678;51.336;12.406;2023-05-10T01:57:02;10.80;99.90
24518;DHT22;12678;51.336;12.406;2023-05-10T01:59:31;10.80;99.90
24518;DHT22;12678;51.336;12.406;2023-05-10T02:02:02;10.80;99.90
24518;DHT22;12678;51.336;12.406;2023-05-10T02:04:28;10.70;99.90
24518;DHT22;12678;51.336;12.406;2023-05-10T02:06:55;10.70;99.90
24518;DHT22;12678;51.336;12.406;2023-05-10T02:09:22;10.70;99.90
24518;DHT22;12678;51.336;12.406;2023-05-10T02:11:49;10.80;99.90
24518;DHT22;12678;51.336;12.406;2023-05-10T02:14:15;10.80;99.90
24518;DHT22;12678;51.336;12.406;2023-05-10T02:16:43;10.80;99.90
24518;DHT22;12678;51.336;12.406;2023-05-10T02:19:10;10.80;99.90
24518;DHT22;12678;51.336;12.406;2023-05-10T02:21:38;10.70;99.90
24518;DHT22;12678;51.336;12.406;2023-05-10T02:24:05;10.70;99.90
24518;DHT22;12678;51.336;12.406;2023-05-10T02:26:32;10.70;99.90
24518;DHT22;12678;51.336;12.406;2023-05-10T02:29:02;10.60;99.90
24518;DHT22;12678;51.336;12.406;2023-05-10T02:31:32;10.60;99.90
24518;DHT22;12678;51.336;12.406;2023-05-10T02:33:59;10.60;99.90
24518;DHT22;12678;51.336;12.406;2023-05-10T02:36:26;10.60;99.90
24518;DHT22;12678;51.336;12.406;2023-05-10T02:38:53;10.50;99.90
24518;DHT22;12678;51.336;12.406;2023-05-10T02:41:20;10.60;99.90
24518;DHT22;12678;51.336;12.406;2023-05-10T02:43:50;10.60;99.90
24518;DHT22;12678;51.336;12.406;2023-05-10T02:46:17;10.70;99.90
24518;DHT22;12678;51.336;12.406;2023-05-10T02:48:42;10.70;99.90
24518;DHT22;12678;51.336;12.406;2023-05-10T02:51:09;10.70;99.90
24518;DHT22;12678;51.336;12.406;2023-05-10T02:53:39;10.60;99.90
24518;DHT22;12678;51.336;12.406;2023-05-10T02:56:13;10.60;99.90
24518;DHT22;12678;51.336;12.406;2023-05-10T02:58:40;10.60;99.90
24518;DHT22;12678;51.336;12.406;2023-05-10T03:01:05;10.60;99.90
24518;DHT22;12678;51.336;12.406;2023-05-10T03:03:33;10.70;99.90
24518;DHT22;12678;51.336;12.406;2023-05-10T03:05:59;10.70;99.90
24518;DHT22;12678;51.336;12.406;2023-05-10T03:08:24;10.80;99.90
24518;DHT22;12678;51.336;12.406;2023-05-10T03:13:56;10.70;99.90
24518;DHT22;12678;51.336;12.406;2023-05-10T03:16:53;10.60;99.90
24518;DHT22;12678;51.336;12.406;2023-05-10T03:19:30;10.60;99.90
24518;DHT22;12678;51.336;12.406;2023-05-10T03:21:59;10.70;99.90
24518;DHT22;12678;51.336;12.406;2023-05-10T03:24:27;10.70;99.90
24518;DHT22;12678;51.336;12.406;2023-05-10T03:26:56;10.70;99.90
24518;DHT22;12678;51.336;12.406;2023-05-10T03:29:26;10.70;99.90
24518;DHT22;12678;51.336;12.406;2023-05-10T03:31:52;10.70;99.90
24518;DHT22;12678;51.336;12.406;2023-05-10T03:34:23;10.70;99.90
24518;DHT22;12678;51.336;12.406;2023-05-10T03:36:49;10.70;99.90
24518;DHT22;12678;51.336;12.406;2023-05-10T03:39:15;10.70;99.90
24518;DHT22;12678;51.336;12.406;2023-05-10T03:41:41;10.70;99.90
24518;DHT22;12678;51.336;12.406;2023-05-10T03:44:07;10.70;99.90
24518;DHT22;12678;51.336;12.406;2023-05-10T03:46:33;10.70;99.90
24518;DHT22;12678;51.336;12.406;2023-05-10T03:48:58;10.70;99.90
24518;DHT22;12678;51.336;12.406;2023-05-10T03:51:24;10.80;99.90
24518;DHT22;12678;51.336;12.406;2023-05-10T03:53:53;10.80;99.90
24518;DHT22;12678;51.336;12.406;2023-05-10T03:56:19;10.80;99.90
24518;DHT22;12678;51.336;12.406;2023-05-10T03:58:46;10.80;99.90
24518;DHT22;12678;51.336;12.406;2023-05-10T04:01:12;10.80;99.90
24518;DHT22;12678;51.336;12.406;2023-05-10T04:03:37;10.80;99.90
24518;DHT22;12678;51.336;12.406;2023-05-10T04:06:03;10.90;99.90
24518;DHT22;12678;51.336;12.406;2023-05-10T04:08:30;11.00;99.90
24518;DHT22;12678;51.336;12.406;2023-05-10T04:11:08;11.10;99.90
24518;DHT22;12678;51.336;12.406;2023-05-10T04:13:35;11.10;99.90
24518;DHT22;12678;51.336;12.406;2023-05-10T04:16:01;11.20;99.90
24518;DHT22;12678;51.336;12.406;2023-05-10T04:18:27;11.30;99.90
24518;DHT22;12678;51.336;12.406;2023-05-10T04:20:53;11.60;99.90
24518;DHT22;12678;51.336;12.406;2023-05-10T04:23:19;11.90;99.90
24518;DHT22;12678;51.336;12.406;2023-05-10T04:25:46;12.20;99.90
24518;DHT22;12678;51.336;12.406;2023-05-10T04:28:12;12.60;99.90
24518;DHT22;12678;51.336;12.406;2023-05-10T04:30:38;13.00;99.90
24518;DHT22;12678;51.336;12.406;2023-05-10T04:33:03;13.60;99.90
24518;DHT22;12678;51.336;12.406;2023-05-10T04:35:29;14.20;99.90
24518;DHT22;12678;51.336;12.406;2023-05-10T04:37:55;15.10;99.90
24518;DHT22;12678;51.336;12.406;2023-05-10T04:40:21;15.60;99.90
24518;DHT22;12678;51.336;12.406;2023-05-10T04:42:46;16.30;99.90
24518;DHT22;12678;51.336;12.406;2023-05-10T04:45:12;16.30;99.90
24518;DHT22;12678;51.336;12.406;2023-05-10T04:47:40;16.50;99.90
24518;DHT22;12678;51.336;12.406;2023-05-10T04:50:06;16.80;99.90
24518;DHT22;12678;51.336;12.406;2023-05-10T04:52:32;17.20;99.90
24518;DHT22;12678;51.336;12.406;2023-05-10T04:54:58;17.70;99.90
24518;DHT22;12678;51.336;12.406;2023-05-10T04:57:23;17.70;99.70
24518;DHT22;12678;51.336;12.406;2023-05-10T04:59:49;18.00;99.70
24518;DHT22;12678;51.336;12.406;2023-05-10T05:02:15;18.30;98.00
24518;DHT22;12678;51.336;12.406;2023-05-10T05:04:40;18.50;97.50
24518;DHT22;12678;51.336;12.406;2023-05-10T05:07:06;18.40;96.80
24518;DHT22;12678;51.336;12.406;2023-05-10T05:09:32;18.20;96.80
24518;DHT22;12678;51.336;12.406;2023-05-10T05:11:58;18.10;97.80
24518;DHT22;12678;51.336;12.406;2023-05-10T05:14:23;18.20;97.70
24518;DHT22;12678;51.336;12.406;2023-05-10T05:16:51;18.30;97.40
24518;DHT22;12678;51.336;12.406;2023-05-10T05:19:16;19.00;95.90
24518;DHT22;12678;51.336;12.406;2023-05-10T05:21:42;19.00;95.80
24518;DHT22;12678;51.336;12.406;2023-05-10T05:24:09;19.20;95.30
24518;DHT22;12678;51.336;12.406;2023-05-10T05:26:35;19.20;94.20
24518;DHT22;12678;51.336;12.406;2023-05-10T05:29:02;18.70;94.60
24518;DHT22;12678;51.336;12.406;2023-05-10T05:31:28;18.30;95.60
24518;DHT22;12678;51.336;12.406;2023-05-10T05:33:53;17.70;97.00
24518;DHT22;12678;51.336;12.406;2023-05-10T05:36:19;17.40;97.90
24518;DHT22;12678;51.336;12.406;2023-05-10T05:38:45;17.60;98.40
24518;DHT22;12678;51.336;12.406;2023-05-10T05:41:11;17.90;98.10
24518;DHT22;12678;51.336;12.406;2023-05-10T05:43:36;17.80;98.10
24518;DHT22;12678;51.336;12.406;2023-05-10T05:46:02;17.60;98.50
24518;DHT22;12678;51.336;12.406;2023-05-10T05:48:30;17.40;98.80
24518;DHT22;12678;51.336;12.406;2023-05-10T05:50:56;17.10;99.30
24518;DHT22;12678;51.336;12.406;2023-05-10T05:53:24;16.70;99.90
24518;DHT22;12678;51.336;12.406;2023-05-10T05:55:54;16.40;99.90
24518;DHT22;12678;51.336;12.406;2023-05-10T05:58:20;16.40;99.90
24518;DHT22;12678;51.336;12.406;2023-05-10T06:00:46;16.40;99.90
24518;DHT22;12678;51.336;12.406;2023-05-10T06:03:11;16.40;99.90
24518;DHT22;12678;51.336;12.406;2023-05-10T06:05:37;16.40;99.90
24518;DHT22;12678;51.336;12.406;2023-05-10T06:08:03;16.20;99.90
24518;DHT22;12678;51.336;12.406;2023-05-10T06:10:29;16.00;99.90
24518;DHT22;12678;51.336;12.406;2023-05-10T06:12:56;16.00;99.90
24518;DHT22;12678;51.336;12.406;2023-05-10T06:15:22;16.10;99.90
24518;DHT22;12678;51.336;12.406;2023-05-10T06:17:48;15.90;99.90
24518;DHT22;12678;51.336;12.406;2023-05-10T06:20:15;15.80;99.90
24518;DHT22;12678;51.336;12.406;2023-05-10T06:22:41;15.90;99.90
24518;DHT22;12678;51.336;12.406;2023-05-10T06:25:08;15.90;99.90
24518;DHT22;12678;51.336;12.406;2023-05-10T06:27:34;15.90;99.90
24518;DHT22;12678;51.336;12.406;2023-05-10T06:30:00;15.90;99.90
24518;DHT22;12678;51.336;12.406;2023-05-10T06:32:26;16.00;99.90
24518;DHT22;12678;51.336;12.406;2023-05-10T06:34:52;16.10;99.90
24518;DHT22;12678;51.336;12.406;2023-05-10T06:37:17;16.20;99.90
24518;DHT22;12678;51.336;12.406;2023-05-10T06:39:43;16.30;99.90
24518;DHT22;12678;51.336;12.406;2023-05-10T06:42:08;16.30;99.90
24518;DHT22;12678;51.336;12.406;2023-05-10T06:44:34;16.50;99.90
24518;DHT22;12678;51.336;12.406;2023-05-10T06:47:00;16.70;99.90
24518;DHT22;12678;51.336;12.406;2023-05-10T06:49:25;17.00;99.90
24518;DHT22;12678;51.336;12.406;2023-05-10T06:51:51;17.60;99.90
24518;DHT22;12678;51.336;12.406;2023-05-10T06:54:17;18.40;99.90
24518;DHT22;12678;51.336;12.406;2023-05-10T06:56:43;18.90;99.90
24518;DHT22;12678;51.336;12.406;2023-05-10T06:59:09;19.40;99.80
24518;DHT22;12678;51.336;12.406;2023-05-10T07:01:34;19.80;98.30
24518;DHT22;12678;51.336;12.406;2023-05-10T07:04:00;20.20;96.80
24518;DHT22;12678;51.336;12.406;2023-05-10T07:06:26;20.10;96.00
24518;DHT22;12678;51.336;12.406;2023-05-10T07:08:53;20.10;95.70
24518;DHT22;12678;51.336;12.406;2023-05-10T07:11:18;19.70;96.40
24518;DHT22;12678;51.336;12.406;2023-05-10T07:13:44;19.70;96.50
24518;DHT22;12678;51.336;12.406;2023-05-10T07:16:11;19.70;96.60
24518;DHT22;12678;51.336;12.406;2023-05-10T07:18:37;19.50;96.50
24518;DHT22;12678;51.336;12.406;2023-05-10T07:21:03;19.10;96.50
24518;DHT22;12678;51.336;12.406;2023-05-10T07:23:28;19.00;97.50
24518;DHT22;12678;51.336;12.406;2023-05-10T07:25:55;19.20;97.90
24518;DHT22;12678;51.336;12.406;2023-05-10T07:28:23;19.30;97.70
24518;DHT22;12678;51.336;12.406;2023-05-10T07:30:49;19.10;96.80
24518;DHT22;12678;51.336;12.406;2023-05-10T07:33:15;19.00;97.20
24518;DHT22;12678;51.336;12.406;2023-05-10T07:35:41;19.00;97.50
24518;DHT22;12678;51.336;12.406;2023-05-10T07:38:07;19.00;97.90
24518;DHT22;12678;51.336;12.406;2023-05-10T07:40:33;19.00;98.20
24518;DHT22;12678;51.336;12.406;2023-05-10T07:42:58;19.10;98.40
24518;DHT22;12678;51.336;12.406;2023-05-10T07:45:26;19.10;98.10
24518;DHT22;12678;51.336;12.406;2023-05-10T07:47:51;19.00;98.70
24518;DHT22;12678;51.336;12.406;2023-05-10T07:50:17;18.90;98.90
24518;DHT22;12678;51.336;12.406;2023-05-10T07:52:43;18.80;99.40
24518;DHT22;12678;51.336;12.406;2023-05-10T07:55:09;18.80;99.70
24518;DHT22;12678;51.336;12.406;2023-05-10T07:57:35;18.80;99.60
24518;DHT22;12678;51.336;12.406;2023-05-10T08:00:01;18.80;99.90
24518;DHT22;12678;51.336;12.406;2023-05-10T08:02:27;19.00;99.90
24518;DHT22;12678;51.336;12.406;2023-05-10T08:04:52;19.00;99.80
24518;DHT22;12678;51.336;12.406;2023-05-10T08:07:18;19.00;99.90
24518;DHT22;12678;51.336;12.406;2023-05-10T08:09:44;19.00;99.90
24518;DHT22;12678;51.336;12.406;2023-05-10T08:12:09;19.00;99.90
24518;DHT22;12678;51.336;12.406;2023-05-10T08:14:35;19.00;99.90
24518;DHT22;12678;51.336;12.406;2023-05-10T08:17:02;19.00;99.90
24518;DHT22;12678;51.336;12.406;2023-05-10T08:19:28;19.10;99.90
24518;DHT22;12678;51.336;12.406;2023-05-10T08:21:54;19.30;99.90
24518;DHT22;12678;51.336;12.406;2023-05-10T08:24:21;19.30;99.90
24518;DHT22;12678;51.336;12.406;2023-05-10T08:26:47;19.60;99.90
24518;DHT22;12678;51.336;12.406;2023-05-10T08:29:13;19.50;99.90
24518;DHT22;12678;51.336;12.406;2023-05-10T08:31:39;19.50;99.90
24518;DHT22;12678;51.336;12.406;2023-05-10T08:34:04;19.40;99.90
24518;DHT22;12678;51.336;12.406;2023-05-10T08:36:30;19.40;99.90
24518;DHT22;12678;51.336;12.406;2023-05-10T08:38:57;19.30;99.90
24518;DHT22;12678;51.336;12.406;2023-05-10T08:41:24;18.90;99.90
24518;DHT22;12678;51.336;12.406;2023-05-10T08:43:53;18.80;99.90
24518;DHT22;12678;51.336;12.406;2023-05-10T08:46:21;18.60;99.90
24518;DHT22;12678;51.336;12.406;2023-05-10T08:48:48;18.50;99.90
24518;DHT22;12678;51.336;12.406;2023-05-10T08:51:19;18.40;99.90
24518;DHT22;12678;51.336;12.406;2023-05-10T08:53:45;18.30;99.90
24518;DHT22;12678;51.336;12.406;2023-05-10T08:56:11;18.20;99.90
24518;DHT22;12678;51.336;12.406;2023-05-10T08:58:38;18.00;99.90
24518;DHT22;12678;51.336;12.406;2023-05-10T09:01:05;18.00;99.90
24518;DHT22;12678;51.336;12.406;2023-05-10T09:03:31;17.90;99.90
24518;DHT22;12678;51.336;12.406;2023-05-10T09:05:58;17.60;99.90
24518;DHT22;12678;51.336;12.406;2023-05-10T09:08:24;17.60;99.90
24518;DHT22;12678;51.336;12.406;2023-05-10T09:10:54;17.60;99.90
24518;DHT22;12678;51.336;12.406;2023-05-10T09:13:21;17.50;99.90
24518;DHT22;12678;51.336;12.406;2023-05-10T09:15:47;17.30;99.90
24518;DHT22;12678;51.336;12.406;2023-05-10T09:18:13;17.30;99.90
24518;DHT22;12678;51.336;12.406;2023-05-10T09:20:39;17.20;99.90
24518;DHT22;12678;51.336;12.406;2023-05-10T09:23:06;16.90;99.90
24518;DHT22;12678;51.336;12.406;2023-05-10T09:25:32;16.60;99.90
24518;DHT22;12678;51.336;12.406;2023-05-10T09:27:59;16.40;99.90
24518;DHT22;12678;51.336;12.406;2023-05-10T09:30:31;16.40;99.90
24518;DHT22;12678;51.336;12.406;2023-05-10T09:32:58;16.20;99.90
24518;DHT22;12678;51.336;12.406;2023-05-10T09:35:28;15.90;99.90
24518;DHT22;12678;51.336;12.406;2023-05-10T09:37:56;15.80;99.90
24518;DHT22;12678;51.336;12.406;2023-05-10T09:40:26;15.80;99.90
24518;DHT22;12678;51.336;12.406;2023-05-10T09:43:03;15.70;99.90
24518;DHT22;12678;51.336;12.406;2023-05-10T09:45:35;15.60;99.90
24518;DHT22;12678;51.336;12.406;2023-05-10T09:48:02;15.60;99.90
24518;DHT22;12678;51.336;12.406;2023-05-10T09:50:29;15.50;99.90
24518;DHT22;12678;51.336;12.406;2023-05-10T09:53:02;15.50;99.90
24518;DHT22;12678;51.336;12.406;2023-05-10T09:58:07;15.50;99.90
24518;DHT22;12678;51.336;12.406;2023-05-10T10:00:37;15.40;99.90
24518;DHT22;12678;51.336;12.406;2023-05-10T10:03:04;15.40;99.90
24518;DHT22;12678;51.336;12.406;2023-05-10T10:05:34;15.40;99.90
24518;DHT22;12678;51.336;12.406;2023-05-10T10:08:04;15.30;99.90
24518;DHT22;12678;51.336;12.406;2023-05-10T10:10:31;15.20;99.90
24518;DHT22;12678;51.336;12.406;2023-05-10T10:12:58;15.20;99.90
24518;DHT22;12678;51.336;12.406;2023-05-10T10:15:25;15.20;99.90
24518;DHT22;12678;51.336;12.406;2023-05-10T10:17:51;15.20;99.90
24518;DHT22;12678;51.336;12.406;2023-05-10T10:20:18;15.20;99.90
24518;DHT22;12678;51.336;12.406;2023-05-10T10:22:44;15.20;99.90
24518;DHT22;12678;51.336;12.406;2023-05-10T10:25:11;15.20;99.90
24518;DHT22;12678;51.336;12.406;2023-05-10T10:35:13;15.30;99.90
24518;DHT22;12678;51.336;12.406;2023-05-10T10:37:46;15.20;99.90
24518;DHT22;12678;51.336;12.406;2023-05-10T10:40:32;15.30;99.90
24518;DHT22;12678;51.336;12.406;2023-05-10T10:48:35;15.40;99.90
24518;DHT22;12678;51.336;12.406;2023-05-10T10:51:01;15.40;99.90
24518;DHT22;12678;51.336;12.406;2023-05-10T10:53:28;15.40;99.90
24518;DHT22;12678;51.336;12.406;2023-05-10T10:56:05;15.50;99.90
24518;DHT22;12678;51.336;12.406;2023-05-10T10:58:32;15.40;99.90
24518;DHT22;12678;51.336;12.406;2023-05-10T11:01:17;15.60;99.90
24518;DHT22;12678;51.336;12.406;2023-05-10T11:06:30;15.60;99.90
24518;DHT22;12678;51.336;12.406;2023-05-10T11:09:10;15.60;99.90
24518;DHT22;12678;51.336;12.406;2023-05-10T11:11:52;15.70;99.90
24518;DHT22;12678;51.336;12.406;2023-05-10T11:14:21;15.60;99.90
24518;DHT22;12678;51.336;12.406;2023-05-10T11:16:47;15.60;99.90
24518;DHT22;12678;51.336;12.406;2023-05-10T11:19:15;15.60;99.90
24518;DHT22;12678;51.336;12.406;2023-05-10T11:22:11;15.60;99.90
24518;DHT22;12678;51.336;12.406;2023-05-10T11:24:38;15.50;99.90
24518;DHT22;12678;51.336;12.406;2023-05-10T11:27:04;15.50;99.90
24518;DHT22;12678;51.336;12.406;2023-05-10T11:29:30;15.40;99.90
24518;DHT22;12678;51.336;12.406;2023-05-10T11:31:59;15.40;99.90
24518;DHT22;12678;51.336;12.406;2023-05-10T11:34:30;15.50;99.90
24518;DHT22;12678;51.336;12.406;2023-05-10T11:36:57;15.50;99.90
24518;DHT22;12678;51.336;12.406;2023-05-10T11:39:30;15.60;99.90
24518;DHT22;12678;51.336;12.406;2023-05-10T11:41:57;15.60;99.90
24518;DHT22;12678;51.336;12.406;2023-05-10T11:44:23;15.60;99.90
24518;DHT22;12678;51.336;12.406;2023-05-10T11:46:49;15.60;99.90
24518;DHT22;12678;51.336;12.406;2023-05-10T11:49:15;15.50;99.90
24518;DHT22;12678;51.336;12.406;2023-05-10T11:51:40;15.50;99.90
24518;DHT22;12678;51.336;12.406;2023-05-10T11:54:09;15.60;99.90
24518;DHT22;12678;51.336;12.406;2023-05-10T11:56:40;15.70;99.90
24518;DHT22;12678;51.336;12.406;2023-05-10T11:59:06;15.60;99.90
24518;DHT22;12678;51.336;12.406;2023-05-10T12:01:33;15.60;99.90
24518;DHT22;12678;51.336;12.406;2023-05-10T12:04:00;15.70;99.90
24518;DHT22;12678;51.336;12.406;2023-05-10T12:06:28;15.80;99.90
24518;DHT22;12678;51.336;12.406;2023-05-10T12:08:54;15.80;99.90
24518;DHT22;12678;51.336;12.406;2023-05-10T12:11:24;15.80;99.90
24518;DHT22;12678;51.336;12.406;2023-05-10T12:13:50;15.80;99.90
24518;DHT22;12678;51.336;12.406;2023-05-10T12:16:18;15.90;99.90
24518;DHT22;12678;51.336;12.406;2023-05-10T12:18:44;16.00;99.90
24518;DHT22;12678;51.336;12.406;2023-05-10T12:21:11;16.10;99.90
24518;DHT22;12678;51.336;12.406;2023-05-10T12:23:40;16.10;99.90
24518;DHT22;12678;51.336;12.406;2023-05-10T12:26:09;16.10;99.90
24518;DHT22;12678;51.336;12.406;2023-05-10T12:28:38;16.00;99.90
24518;DHT22;12678;51.336;12.406;2023-05-10T12:31:07;16.00;99.90
24518;DHT22;12678;51.336;12.406;2023-05-10T12:33:42;16.00;99.90
24518;DHT22;12678;51.336;12.406;2023-05-10T12:36:13;16.00;99.90
24518;DHT22;12678;51.336;12.406;2023-05-10T12:41:12;16.00;99.90
24518;DHT22;12678;51.336;12.406;2023-05-10T12:43:38;16.20;99.90
24518;DHT22;12678;51.336;12.406;2023-05-10T12:46:12;16.10;99.90
24518;DHT22;12678;51.336;12.406;2023-05-10T12:48:40;16.30;99.90
24518;DHT22;12678;51.336;12.406;2023-05-10T12:51:06;16.30;99.90
24518;DHT22;12678;51.336;12.406;2023-05-10T12:53:37;16.40;99.90
24518;DHT22;12678;51.336;12.406;2023-05-10T12:56:07;16.40;99.90
24518;DHT22;12678;51.336;12.406;2023-05-10T12:58:34;16.40;99.90
24518;DHT22;12678;51.336;12.406;2023-05-10T13:01:00;16.30;99.90
24518;DHT22;12678;51.336;12.406;2023-05-10T13:03:26;16.40;99.90
24518;DHT22;12678;51.336;12.406;2023-05-10T13:05:51;16.30;99.90
24518;DHT22;12678;51.336;12.406;2023-05-10T13:08:17;16.30;99.90
24518;DHT22;12678;51.336;12.406;2023-05-10T13:10:43;16.20;99.90
24518;DHT22;12678;51.336;12.406;2023-05-10T13:13:09;16.30;99.90
24518;DHT22;12678;51.336;12.406;2023-05-10T13:15:35;16.40;99.90
24518;DHT22;12678;51.336;12.406;2023-05-10T13:18:01;16.30;99.90
24518;DHT22;12678;51.336;12.406;2023-05-10T13:20:26;16.30;99.90
24518;DHT22;12678;51.336;12.406;2023-05-10T13:22:53;16.40;99.90
24518;DHT22;12678;51.336;12.406;2023-05-10T13:25:18;16.60;99.90
24518;DHT22;12678;51.336;12.406;2023-05-10T13:27:44;16.60;99.90
24518;DHT22;12678;51.336;12.406;2023-05-10T13:30:10;16.60;99.90
24518;DHT22;12678;51.336;12.406;2023-05-10T13:32:37;16.70;99.90
24518;DHT22;12678;51.336;12.406;2023-05-10T13:35:03;16.90;99.90
24518;DHT22;12678;51.336;12.406;2023-05-10T13:37:30;17.00;99.90
24518;DHT22;12678;51.336;12.406;2023-05-10T13:39:56;17.20;99.90
24518;DHT22;12678;51.336;12.406;2023-05-10T13:42:22;17.20;99.90
24518;DHT22;12678;51.336;12.406;2023-05-10T13:44:49;17.20;99.90
24518;DHT22;12678;51.336;12.406;2023-05-10T13:47:14;17.20;99.90
24518;DHT22;12678;51.336;12.406;2023-05-10T13:49:40;17.10;99.90
24518;DHT22;12678;51.336;12.406;2023-05-10T13:52:06;17.00;99.90
24518;DHT22;12678;51.336;12.406;2023-05-10T13:54:38;17.00;99.90
24518;DHT22;12678;51.336;12.406;2023-05-10T13:57:04;16.90;99.90
24518;DHT22;12678;51.336;12.406;2023-05-10T13:59:30;17.00;99.90
24518;DHT22;12678;51.336;12.406;2023-05-10T14:02:00;17.00;99.90
24518;DHT22;12678;51.336;12.406;2023-05-10T14:04:29;17.00;99.90
24518;DHT22;12678;51.336;12.406;2023-05-10T14:06:55;17.10;99.90
24518;DHT22;12678;51.336;12.406;2023-05-10T14:09:21;17.10;99.90
24518;DHT22;12678;51.336;12.406;2023-05-10T14:11:46;17.10;99.90
24518;DHT22;12678;51.336;12.406;2023-05-10T14:14:12;17.20;99.90
24518;DHT22;12678;51.336;12.406;2023-05-10T14:16:42;17.20;99.90
24518;DHT22;12678;51.336;12.406;2023-05-10T14:19:09;17.10;99.90
24518;DHT22;12678;51.336;12.406;2023-05-10T14:21:34;17.20;99.90
24518;DHT22;12678;51.336;12.406;2023-05-10T14:24:00;17.20;99.90
24518;DHT22;12678;51.336;12.406;2023-05-10T14:26:26;17.20;99.90
24518;DHT22;12678;51.336;12.406;2023-05-10T14:28:53;17.20;99.90
24518;DHT22;12678;51.336;12.406;2023-05-10T14:31:18;17.20;99.90
24518;DHT22;12678;51.336;12.406;2023-05-10T14:33:46;17.20;99.90
24518;DHT22;12678;51.336;12.406;2023-05-10T14:36:12;17.20;99.90
24518;DHT22;12678;51.336;12.406;2023-05-10T14:38:38;17.20;99.90
24518;DHT22;12678;51.336;12.406;2023-05-10T14:41:04;17.30;99.90
24518;DHT22;12678;51.336;12.406;2023-05-10T14:43:30;17.30;99.90
24518;DHT22;12678;51.336;12.406;2023-05-10T14:45:55;17.30;99.90
24518;DHT22;12678;51.336;12.406;2023-05-10T14:48:21;17.30;99.90
24518;DHT22;12678;51.336;12.406;2023-05-10T14:50:47;17.30;99.90
24518;DHT22;12678;51.336;12.406;2023-05-10T14:53:12;17.20;99.90
24518;DHT22;12678;51.336;12.406;2023-05-10T14:55:38;17.20;99.90
24518;DHT22;12678;51.336;12.406;2023-05-10T14:58:04;17.10;99.90
24518;DHT22;12678;51.336;12.406;2023-05-10T15:00:30;17.20;99.90
24518;DHT22;12678;51.336;12.406;2023-05-10T15:02:56;17.20;99.90
24518;DHT22;12678;51.336;12.406;2023-05-10T15:05:22;17.20;99.90
24518;DHT22;12678;51.336;12.406;2023-05-10T15:07:47;17.20;99.90
24518;DHT22;12678;51.336;12.406;2023-05-10T15:10:14;17.10;99.90
24518;DHT22;12678;51.336;12.406;2023-05-10T15:12:39;17.00;99.90
24518;DHT22;12678;51.336;12.406;2023-05-10T15:15:06;16.90;99.90
24518;DHT22;12678;51.336;12.406;2023-05-10T15:17:32;16.60;99.90
24518;DHT22;12678;51.336;12.406;2023-05-10T15:19:58;16.40;99.90
24518;DHT22;12678;51.336;12.406;2023-05-10T15:22:23;16.30;99.90
24518;DHT22;12678;51.336;12.406;2023-05-10T15:24:49;16.20;99.90
24518;DHT22;12678;51.336;12.406;2023-05-10T15:27:15;16.10;99.90
24518;DHT22;12678;51.336;12.406;2023-05-10T15:29:41;16.00;99.90
24518;DHT22;12678;51.336;12.406;2023-05-10T15:32:07;15.90;99.90
24518;DHT22;12678;51.336;12.406;2023-05-10T15:34:33;15.80;99.90
24518;DHT22;12678;51.336;12.406;2023-05-10T15:36:59;15.70;99.90
24518;DHT22;12678;51.336;12.406;2023-05-10T15:39:25;15.70;99.90
24518;DHT22;12678;51.336;12.406;2023-05-10T15:41:50;15.60;99.90
24518;DHT22;12678;51.336;12.406;2023-05-10T15:44:16;15.60;99.90
24518;DHT22;12678;51.336;12.406;2023-05-10T15:46:43;15.50;99.90
24518;DHT22;12678;51.336;12.406;2023-05-10T15:49:09;15.50;99.90
24518;DHT22;12678;51.336;12.406;2023-05-10T15:51:34;15.60;99.90